PDA

Archiv verlassen und diese Seite im Standarddesign anzeigen : Das war heftig..........heute in LSZH



Hermann
03.12.2018, 22:06
LSZH 031750Z 20008KT 160V230 9999 -SHRA FEW018 SCT025TCU BKN040 12/09 Q1008 TEMPO 25018G33KT 4000 TSRA


GIPOL 28
https://up.picr.de/34488749vk.jpg

https://up.picr.de/34488753rk.jpg

https://up.picr.de/34488756os.jpg